SBCTSBLO

Guest
Details From SBCT - Afonso Pena
To SBLO - Londrina
Flight Number -
Tags generated
Created
Modified
Stats Distance 170 nm / 315 km
Max Altitude 14,200 ft / 4,328 m
Waypoints 5
Social Downloads 0
Likes 0
Share VATSIM

Download

Looking for another format? Having issues loading an existing format? Contact us
Advertisement - Login to hide

Notes

Basic altitude profile: - Ascent Rate: 2500ft/min - Ascent Speed: 250kts - Cruise Altitude: 35000ft - Cruise Speed: 420kts - Descent Rate: 1500ft/min - Descent Speed: 250kts Options: - Use NATs: yes - Use PACOTS: yes - Use low airways: yes - Use high airways: yes

Route

SBCT ELOSA W26 LON SBLO

ID Type Via Altitude Latitude Longitude Leg Dist Tot Dist Heading (true) Name
O SBCT APT - 0 ft / 0 m -25.52888˚ -49.17306˚ - 0 nm - Afonso Pena
ELOSA FIX - 14,200 ft / 4,328 m -25.01350˚ -49.63667˚ 39 nm 39 nm 321° / 321° -
JAVAN FIX W26 (AWY-LO) 8,800 ft / 2,682 m -23.86100˚ -50.65817˚ 88 nm 128 nm 321° / 321° -
LON VOR W26 (AWY-LO) 7,500 ft / 2,286 m -23.33951˚ -51.11253˚ 40 nm 168 nm 321° / 321° LONDRINA VOR-DME
O SBLO APT - 0 ft / 0 m -23.33362˚ -51.13007˚ 1 nm 169 nm 290° / 290° Londrina

Altitude Profile

Advertisement - Login to hide

Weather


0- 5 10 15 20 25 30 35+ Temperature / ° C

Clouds and Precipitation
Forecast for 2018-05-21 00:00 UTC. Updated 3 hours ago

Ground ~20,000 ft ~40,000 ft Winds

SBCT

Details ICAO SBCT (CWB)
Name Afonso Pena
Region Brazil
Timezone America/Sao_Paulo (UTC-3.0)
Stats Elevation 2,988 ft / 911 m (AMSL)
Location -25.528885° -49.173062°
Runways 2
Magnetic Variation 19.673° W

METAR

SBCT 210200Z 27006KT CAVOK 09/04 Q1018

Decode

TAF

TAF SBCT 202100Z 2100/2124 22007KT CAVOK TN02/2109Z TX19/2118Z BECMG 2104/2106 20004KT PROB30 2108/2110 4000 BR NSC BECMG 2110/2112 05004KT BECMG 2114/2116 32007KT RMK PDJ

Decode

Departure Runways

ID Width Length Bearing (true) Bearing (mag) Surface Threshold Offset Overrun Length
11 148 ft / 45 m 5,909 ft / 1,801 m 91.79° 111.46° Asphalt 0 ft / 0 m 0 ft / 0 m
15 148 ft / 45 m 7,290 ft / 2,222 m 134.76° 154.43° Asphalt 0 ft / 0 m 190 ft / 58 m
29 148 ft / 45 m 5,909 ft / 1,801 m 271.78° 291.45° Asphalt 0 ft / 0 m 0 ft / 0 m
33 148 ft / 45 m 7,290 ft / 2,222 m 314.75° 334.42° Asphalt 0 ft / 0 m 185 ft / 56 m

SBLO

Details ICAO SBLO (LDB)
Name Londrina
Region Brazil
Timezone America/Sao_Paulo (UTC-3.0)
Stats Elevation 1,867 ft / 569 m (AMSL)
Location -23.333624° -51.130072°
Runways 1
Magnetic Variation 19.138° W

METAR

SBLO 210200Z 26004KT CAVOK 11/06 Q1018

Decode

TAF

TAF TAF SBLO 202100Z 2100/2112 00000KT CAVOK TX10/2100Z TN07/2109Z RMK PDJ

Decode

Destination Runways

ID Width Length Bearing (true) Bearing (mag) Surface Threshold Offset Overrun Length
13 148 ft / 45 m 6,926 ft / 2,111 m 110.29° 129.43° Asphalt 975 ft / 297 m 0 ft / 0 m
31 148 ft / 45 m 6,926 ft / 2,111 m 290.28° 309.42° Asphalt 0 ft / 0 m 100 ft / 30 m

Popular Alternatives